createdAt,value
2018-09-05T00:00:11.844Z,38.00
2018-09-05T00:02:39.945Z,39.53
2018-09-05T00:05:08.066Z,34.47
2018-09-05T00:07:36.320Z,36.70
2018-09-05T00:10:04.440Z,40.47
2018-09-05T00:12:32.494Z,36.43
2018-09-05T00:15:00.612Z,40.07
2018-09-05T00:17:28.659Z,36.80
2018-09-05T00:19:56.863Z,35.37
2018-09-05T00:22:24.901Z,36.17
2018-09-05T00:24:52.960Z,37.93
2018-09-05T00:27:21.023Z,39.90
2018-09-05T00:29:49.067Z,35.07
2018-09-05T00:32:17.132Z,37.57
2018-09-05T00:34:45.223Z,40.27
2018-09-05T00:37:13.282Z,36.03
2018-09-05T00:39:41.681Z,40.47
2018-09-05T00:42:09.715Z,42.30
2018-09-05T00:44:37.815Z,37.03
2018-09-05T00:47:05.864Z,34.93
2018-09-05T00:49:33.917Z,39.03
2018-09-05T00:52:01.960Z,36.10
2018-09-05T00:54:29.998Z,41.20
2018-09-05T00:56:58.196Z,39.13
2018-09-05T00:59:26.252Z,39.53
2018-09-05T01:01:54.286Z,37.37
2018-09-05T01:04:22.360Z,36.43
2018-09-05T01:06:50.381Z,37.47
2018-09-05T01:09:18.438Z,36.83
2018-09-05T01:11:46.476Z,34.23
2018-09-05T01:14:14.503Z,34.40
2018-09-05T01:16:42.720Z,44.20
2018-09-05T01:19:10.757Z,35.88
2018-09-05T01:21:38.814Z,37.03
2018-09-05T01:24:07.207Z,36.97
2018-09-05T01:26:35.227Z,45.87
2018-09-05T01:29:03.251Z,42.17
2018-09-05T01:31:31.289Z,37.33
2018-09-05T01:33:59.325Z,38.00
2018-09-05T01:36:27.355Z,41.83
2018-09-05T01:38:55.388Z,38.17
2018-09-05T01:41:23.576Z,43.50
2018-09-05T01:43:51.621Z,38.97
2018-09-05T01:46:19.642Z,35.83
2018-09-05T01:48:47.673Z,40.37
2018-09-05T01:51:15.709Z,42.85
2018-09-05T01:53:43.748Z,35.40
2018-09-05T01:56:11.789Z,36.60
2018-09-05T01:58:39.812Z,36.97
2018-09-05T02:01:07.891Z,40.40
2018-09-05T02:03:35.948Z,37.87
2018-09-05T02:06:04.719Z,40.03
2018-09-05T02:08:32.810Z,41.53
2018-09-05T02:11:00.784Z,42.10
2018-09-05T02:13:28.820Z,43.80
2018-09-05T02:15:56.865Z,43.50
2018-09-05T02:18:24.900Z,38.00
2018-09-05T02:20:52.943Z,41.93
2018-09-05T02:23:20.969Z,42.07
2018-09-05T02:25:49.009Z,41.77
2018-09-05T02:28:17.037Z,41.13
2018-09-05T02:30:45.069Z,45.30
2018-09-05T02:33:13.106Z,41.77
2018-09-05T02:35:41.144Z,39.43
2018-09-05T02:38:09.164Z,38.97
2018-09-05T02:40:37.218Z,43.53
2018-09-05T02:43:05.248Z,39.53
2018-09-05T02:45:33.277Z,39.87
2018-09-05T02:48:01.310Z,45.17
2018-09-05T02:50:29.355Z,49.17
2018-09-05T02:52:57.416Z,45.10
2018-09-05T02:55:30.794Z,42.43
2018-09-05T02:57:58.847Z,43.87
2018-09-05T03:00:26.892Z,39.93
2018-09-05T03:02:54.971Z,41.03
2018-09-05T03:05:23.035Z,42.47
2018-09-05T03:07:51.067Z,43.77
2018-09-05T03:10:19.110Z,43.17
2018-09-05T03:12:47.168Z,40.80
2018-09-05T03:15:15.197Z,48.03
2018-09-05T03:17:43.248Z,41.17
2018-09-05T03:20:11.331Z,46.45
2018-09-05T03:22:39.371Z,42.40
2018-09-05T03:27:46.853Z,44.60
2018-09-05T03:30:14.895Z,50.60
2018-09-05T03:32:43.079Z,43.43
2018-09-05T03:35:10.996Z,36.85
2018-09-05T03:37:39.049Z,39.77
2018-09-05T03:40:07.104Z,38.13
2018-09-05T03:42:35.181Z,37.07
2018-09-05T03:45:03.231Z,38.33
2018-09-05T03:47:31.263Z,45.43
2018-09-05T03:49:59.312Z,44.70
2018-09-05T03:52:27.384Z,44.13
2018-09-05T03:54:55.437Z,35.50
2018-09-05T03:57:23.493Z,38.53
2018-09-05T03:59:51.532Z,42.20
2018-09-05T04:02:19.561Z,38.77
2018-09-05T04:04:47.608Z,38.00
2018-09-05T04:07:15.638Z,38.30
2018-09-05T04:09:43.669Z,36.40
2018-09-05T04:12:11.771Z,38.85
2018-09-05T04:14:39.764Z,43.33
2018-09-05T04:17:08.031Z,38.67
2018-09-05T04:19:36.063Z,38.10
2018-09-05T04:22:04.848Z,35.98
2018-09-05T04:24:32.972Z,42.20
2018-09-05T04:27:01.020Z,41.70
2018-09-05T04:29:29.167Z,37.57
2018-09-05T04:31:57.100Z,37.60
2018-09-05T04:34:25.120Z,38.60
2018-09-05T04:36:53.161Z,40.10
2018-09-05T04:39:21.200Z,40.00
2018-09-05T04:41:49.255Z,37.13
2018-09-05T04:44:17.288Z,38.23
2018-09-05T04:46:45.322Z,34.47
2018-09-05T04:49:13.484Z,36.10
2018-09-05T04:51:41.647Z,37.00
2018-09-05T04:54:09.672Z,36.77
2018-09-05T04:56:37.699Z,41.70
2018-09-05T04:59:06.792Z,38.47
2018-09-05T05:01:35.037Z,39.33
2018-09-05T05:04:03.023Z,35.53
2018-09-05T05:06:31.081Z,36.50
2018-09-05T05:08:59.135Z,35.40
2018-09-05T05:11:27.158Z,33.90
2018-09-05T05:13:55.378Z,35.20
2018-09-05T05:16:23.368Z,34.27
2018-09-05T05:18:51.671Z,33.90
2018-09-05T05:21:19.736Z,34.13
2018-09-05T05:23:47.756Z,33.83
2018-09-05T05:26:15.865Z,35.97
2018-09-05T05:28:44.215Z,33.08
2018-09-05T05:31:12.315Z,37.10
2018-09-05T05:33:40.344Z,34.40
2018-09-05T05:36:08.528Z,31.17
2018-09-05T05:38:36.558Z,40.30
2018-09-05T05:41:04.800Z,36.75
2018-09-05T05:43:33.029Z,35.27
2018-09-05T05:46:01.064Z,31.53
2018-09-05T05:48:29.090Z,34.83
2018-09-05T05:50:57.299Z,35.40
2018-09-05T05:53:25.318Z,35.20
2018-09-05T05:55:53.337Z,31.80
2018-09-05T05:58:21.376Z,29.67
2018-09-05T06:00:49.546Z,29.23
2018-09-05T06:03:17.484Z,33.15
2018-09-05T06:05:45.524Z,31.27
2018-09-05T06:08:25.535Z,31.33
2018-09-05T06:10:53.584Z,28.93
2018-09-05T06:13:21.624Z,30.80
2018-09-05T06:15:49.657Z,33.13
2018-09-05T06:18:17.950Z,32.63
2018-09-05T06:20:45.972Z,29.50
2018-09-05T06:23:14.016Z,29.23
2018-09-05T06:25:42.054Z,34.80
2018-09-05T06:28:10.074Z,31.33
2018-09-05T06:30:38.412Z,33.87
2018-09-05T06:33:06.299Z,30.53
2018-09-05T06:35:34.441Z,34.33
2018-09-05T06:38:02.478Z,31.17
2018-09-05T06:40:30.520Z,28.10
2018-09-05T06:42:58.597Z,31.87
2018-09-05T06:45:26.696Z,30.67
2018-09-05T06:47:54.656Z,33.23
2018-09-05T06:50:22.718Z,31.77
2018-09-05T06:52:50.938Z,28.17
2018-09-05T06:55:18.972Z,34.13
2018-09-05T06:57:47.025Z,32.40
2018-09-05T07:00:17.334Z,27.83
2018-09-05T07:02:45.366Z,30.53
2018-09-05T07:05:13.409Z,32.15
2018-09-05T07:07:41.445Z,28.37
2018-09-05T07:10:09.515Z,30.30
2018-09-05T07:12:37.529Z,32.47
2018-09-05T07:15:06.159Z,29.65
2018-09-05T07:17:34.245Z,28.37
2018-09-05T07:20:02.253Z,26.70
2018-09-05T07:22:30.289Z,25.80
2018-09-05T07:24:58.694Z,27.33
2018-09-05T07:27:26.832Z,27.17
2018-09-05T07:29:54.871Z,25.83
2018-09-05T07:32:22.889Z,26.57
2018-09-05T07:34:50.932Z,25.57
2018-09-05T07:37:19.121Z,23.37
2018-09-05T07:39:47.149Z,22.80
2018-09-05T07:42:15.196Z,23.32
2018-09-05T07:44:43.376Z,22.30
2018-09-05T07:47:11.404Z,22.93
2018-09-05T07:49:39.428Z,23.03
2018-09-05T07:52:07.507Z,20.13
2018-09-05T07:54:35.518Z,20.77
2018-09-05T07:57:03.543Z,21.17
2018-09-05T07:59:31.599Z,19.97
2018-09-05T08:01:59.628Z,18.33
2018-09-05T08:04:27.670Z,18.80
2018-09-05T08:06:54.780Z,18.70
2018-09-05T08:09:22.834Z,18.73
2018-09-05T08:11:50.928Z,17.93
2018-09-05T08:14:18.908Z,17.47
2018-09-05T08:16:47.207Z,19.67
2018-09-05T08:19:15.240Z,18.93
2018-09-05T08:21:43.295Z,16.37
2018-09-05T08:24:11.511Z,16.70
2018-09-05T08:26:39.540Z,17.07
2018-09-05T08:29:07.624Z,16.60
2018-09-05T08:31:35.632Z,16.53
2018-09-05T08:34:03.657Z,15.03
2018-09-05T08:36:31.877Z,16.73
2018-09-05T08:38:59.847Z,14.17
2018-09-05T08:41:27.840Z,16.33
2018-09-05T08:43:55.871Z,16.03
2018-09-05T08:46:24.084Z,14.30
2018-09-05T08:48:52.100Z,14.93
2018-09-05T08:51:20.312Z,14.63
2018-09-05T08:53:49.114Z,14.37
2018-09-05T08:56:17.235Z,15.63
2018-09-05T08:58:45.545Z,14.07
2018-09-05T09:01:13.525Z,15.40
2018-09-05T09:03:41.819Z,12.13
2018-09-05T09:06:09.892Z,14.50
2018-09-05T09:08:37.906Z,14.20
2018-09-05T09:11:05.952Z,13.57
2018-09-05T09:13:33.998Z,13.00
2018-09-05T09:16:02.031Z,12.77
2018-09-05T09:18:30.064Z,12.73
2018-09-05T09:20:58.104Z,14.77
2018-09-05T09:23:26.134Z,12.77
2018-09-05T09:25:54.165Z,16.23
2018-09-05T09:28:22.391Z,11.70
2018-09-05T09:30:50.396Z,11.47
2018-09-05T09:33:18.432Z,13.18
2018-09-05T09:35:46.636Z,13.30
2018-09-05T09:38:14.676Z,12.13
2018-09-05T09:40:42.716Z,10.93
2018-09-05T09:43:10.756Z,10.73
2018-09-05T09:45:38.813Z,9.77
2018-09-05T09:48:07.024Z,9.47
2018-09-05T09:50:35.061Z,9.73
2018-09-05T09:53:03.086Z,9.67
2018-09-05T09:55:31.144Z,8.70
2018-09-05T09:57:59.164Z,9.73
2018-09-05T10:00:32.520Z,8.20
2018-09-05T10:03:06.072Z,8.53
2018-09-05T10:05:39.483Z,10.67
2018-09-05T10:08:10.224Z,8.83
2018-09-05T10:10:43.679Z,8.30
2018-09-05T10:13:12.919Z,8.43
2018-09-05T10:15:46.172Z,8.03
2018-09-05T10:18:19.506Z,9.15
2018-09-05T10:20:54.283Z,10.23
2018-09-05T10:23:22.305Z,9.13
2018-09-05T10:25:50.364Z,8.27
2018-09-05T10:28:18.552Z,7.45
2018-09-05T10:30:46.719Z,7.53
2018-09-05T10:33:14.747Z,10.13
2018-09-05T10:35:42.952Z,7.57
2018-09-05T10:38:10.973Z,7.80
2018-09-05T10:40:39.006Z,7.00
2018-09-05T10:43:07.061Z,7.33
2018-09-05T10:45:35.084Z,7.80
2018-09-05T10:48:03.163Z,7.80
2018-09-05T10:50:31.240Z,7.23
2018-09-05T10:52:59.366Z,7.47
2018-09-05T10:55:27.399Z,8.40
2018-09-05T10:57:55.436Z,8.00
2018-09-05T11:00:23.487Z,9.03
2018-09-05T11:02:51.528Z,7.30
2018-09-05T11:05:25.923Z,7.30
2018-09-05T11:07:54.124Z,7.60
2018-09-05T11:10:22.195Z,8.17
2018-09-05T11:12:50.200Z,7.47
2018-09-05T11:15:18.252Z,7.67
2018-09-05T11:17:46.284Z,7.37
2018-09-05T11:20:14.433Z,7.90
2018-09-05T11:22:42.491Z,7.93
2018-09-05T11:25:10.527Z,8.23
2018-09-05T11:27:38.611Z,8.10
2018-09-05T11:30:06.679Z,8.97
2018-09-05T11:32:35.266Z,9.50
2018-09-05T11:35:03.305Z,8.17
2018-09-05T11:37:32.275Z,7.43
2018-09-05T11:40:00.345Z,8.33
2018-09-05T11:42:28.380Z,8.23
2018-09-05T11:44:56.421Z,7.30
2018-09-05T11:47:24.459Z,8.40
2018-09-05T11:49:52.516Z,6.93
2018-09-05T11:52:21.004Z,9.07
2018-09-05T11:54:49.047Z,8.43
2018-09-05T11:57:17.181Z,7.30
2018-09-05T11:59:47.362Z,7.67
2018-09-05T12:02:15.836Z,9.43
2018-09-05T12:04:44.051Z,8.67
2018-09-05T12:07:12.528Z,7.78
2018-09-05T12:09:40.568Z,9.50
2018-09-05T12:12:08.653Z,7.13
2018-09-05T12:14:36.643Z,7.90
2018-09-05T12:17:50.363Z,8.80
2018-09-05T12:20:18.404Z,7.67
2018-09-05T12:22:46.472Z,7.03
2018-09-05T12:25:14.554Z,8.40
2018-09-05T12:27:42.739Z,7.77
2018-09-05T12:30:10.755Z,7.63
2018-09-05T12:32:38.788Z,6.40
2018-09-05T12:35:07.197Z,6.13
2018-09-05T12:37:35.230Z,7.63
2018-09-05T12:40:03.277Z,7.40
2018-09-05T12:42:31.346Z,7.67
2018-09-05T12:44:59.417Z,6.77
2018-09-05T12:47:27.465Z,7.87
2018-09-05T12:49:55.957Z,8.57
2018-09-05T12:52:24.013Z,7.73
2018-09-05T12:54:52.036Z,6.00
2018-09-05T12:57:20.076Z,5.90
2018-09-05T12:59:48.307Z,5.90
2018-09-05T13:02:16.364Z,6.57
2018-09-05T13:04:44.391Z,7.20
2018-09-05T13:07:12.459Z,5.10
2018-09-05T13:09:40.679Z,5.90
2018-09-05T13:12:08.708Z,5.97
2018-09-05T13:14:36.917Z,5.75
2018-09-05T13:17:05.197Z,6.10
2018-09-05T13:19:33.233Z,10.93
2018-09-05T13:22:01.265Z,6.47
2018-09-05T13:24:29.290Z,7.50
2018-09-05T13:26:57.420Z,5.50
2018-09-05T13:29:25.419Z,5.37
2018-09-05T13:31:53.606Z,5.90
2018-09-05T13:34:21.832Z,5.83
2018-09-05T13:36:49.938Z,6.43
2018-09-05T13:39:17.968Z,6.55
2018-09-05T13:41:46.084Z,5.27
2018-09-05T13:44:14.139Z,7.78
2018-09-05T13:46:42.344Z,5.30
2018-09-05T13:49:10.395Z,5.30
2018-09-05T13:51:38.638Z,5.67
2018-09-05T13:54:07.511Z,6.07
2018-09-05T13:56:35.573Z,6.13
2018-09-05T13:59:05.032Z,5.10
2018-09-05T14:01:33.076Z,5.40
2018-09-05T14:04:01.120Z,7.10
2018-09-05T14:06:29.164Z,5.27
2018-09-05T14:08:57.254Z,5.30
2018-09-05T14:11:25.335Z,5.10
2018-09-05T14:13:53.428Z,4.93
2018-09-05T14:16:21.472Z,4.77
2018-09-05T14:18:49.688Z,5.17
2018-09-05T14:21:17.712Z,4.83
2018-09-05T14:23:46.308Z,5.37
2018-09-05T14:26:14.342Z,5.47
2018-09-05T14:28:42.392Z,5.13
2018-09-05T14:31:10.428Z,4.42
2018-09-05T14:33:38.522Z,4.27
2018-09-05T14:36:06.558Z,5.23
2018-09-05T14:38:34.927Z,5.60
2018-09-05T14:41:02.964Z,4.70
2018-09-05T14:43:31.181Z,4.43
2018-09-05T14:45:59.210Z,5.10
2018-09-05T14:48:27.275Z,5.00
2018-09-05T14:50:55.322Z,5.83
2018-09-05T14:53:23.487Z,4.47
2018-09-05T14:55:51.502Z,5.33
2018-09-05T14:58:19.560Z,4.57
2018-09-05T15:00:47.748Z,4.83
2018-09-05T15:03:15.797Z,4.83
2018-09-05T15:05:43.989Z,4.23
2018-09-05T15:08:14.248Z,5.40
2018-09-05T15:10:42.892Z,4.90
2018-09-05T15:13:10.937Z,8.50
2018-09-05T15:15:39.025Z,4.17
2018-09-05T15:18:07.228Z,4.57
2018-09-05T15:20:35.262Z,4.30
2018-09-05T15:23:03.304Z,4.93
2018-09-05T15:25:31.498Z,4.57
2018-09-05T15:27:59.752Z,5.50
2018-09-05T15:30:27.805Z,5.00
2018-09-05T15:32:56.512Z,5.23
2018-09-05T15:35:24.548Z,4.90
2018-09-05T15:37:52.586Z,4.90
2018-09-05T15:40:20.622Z,4.57
2018-09-05T15:42:49.088Z,5.00
2018-09-05T15:45:17.125Z,5.03
2018-09-05T15:47:45.197Z,4.37
2018-09-05T15:50:13.253Z,7.43
2018-09-05T15:52:41.357Z,5.17
2018-09-05T15:55:09.688Z,4.27
2018-09-05T15:57:37.731Z,5.07
2018-09-05T16:02:54.092Z,5.63
2018-09-05T16:05:22.110Z,5.70
2018-09-05T16:07:50.349Z,5.30
2018-09-05T16:10:18.411Z,5.17
2018-09-05T16:12:46.378Z,6.90
2018-09-05T16:15:14.418Z,6.10
2018-09-05T16:17:42.425Z,7.53
2018-09-05T16:20:10.704Z,6.43
2018-09-05T16:22:38.714Z,5.87
2018-09-05T16:25:06.864Z,5.70
2018-09-05T16:27:34.920Z,5.30
2018-09-05T16:30:03.145Z,7.77
2018-09-05T16:32:31.353Z,6.67
2018-09-05T16:35:03.341Z,6.07
2018-09-05T16:37:31.408Z,5.27
2018-09-05T16:39:59.409Z,5.23
2018-09-05T16:42:27.465Z,5.20
2018-09-05T16:44:56.664Z,5.40
2018-09-05T16:47:24.765Z,5.47
2018-09-05T16:49:52.996Z,5.58
2018-09-05T16:52:25.224Z,5.70
2018-09-05T16:54:53.389Z,5.80
2018-09-05T16:57:21.416Z,5.90
2018-09-05T16:59:49.695Z,7.03
2018-09-05T17:02:17.714Z,7.00
2018-09-05T17:04:45.737Z,6.73
2018-09-05T17:07:14.189Z,6.20
2018-09-05T17:09:42.219Z,5.87
2018-09-05T17:12:10.398Z,5.63
2018-09-05T17:14:38.412Z,7.30
2018-09-05T17:17:06.465Z,6.80
2018-09-05T17:19:34.486Z,9.53
2018-09-05T17:22:02.980Z,10.03
2018-09-05T17:24:30.999Z,7.33
2018-09-05T17:26:59.868Z,7.47
2018-09-05T17:29:27.896Z,8.00
2018-09-05T17:31:55.924Z,6.43
2018-09-05T17:34:23.936Z,6.05
2018-09-05T17:36:51.959Z,6.23
2018-09-05T17:39:20.034Z,6.20
2018-09-05T17:41:48.114Z,6.90
2018-09-05T17:44:16.173Z,6.92
2018-09-05T17:46:44.184Z,6.00
2018-09-05T17:49:12.208Z,6.17
2018-09-05T17:51:40.216Z,6.67
2018-09-05T17:54:08.402Z,6.43
2018-09-05T17:56:36.841Z,7.30
2018-09-05T17:59:05.869Z,7.60
2018-09-05T18:01:34.082Z,7.40
2018-09-05T18:04:02.323Z,6.80
2018-09-05T18:06:30.364Z,7.17
2018-09-05T18:08:58.384Z,8.83
2018-09-05T18:11:27.417Z,7.37
2018-09-05T18:13:55.450Z,6.03
2018-09-05T18:16:23.469Z,8.37
2018-09-05T18:18:51.490Z,8.57
2018-09-05T18:21:19.717Z,8.43
2018-09-05T18:23:47.798Z,8.97
2018-09-05T18:26:15.827Z,10.90
2018-09-05T18:28:43.895Z,8.20
2018-09-05T18:31:12.031Z,8.87
2018-09-05T18:33:40.063Z,8.70
2018-09-05T18:36:08.334Z,8.13
2018-09-05T18:38:36.354Z,8.07
2018-09-05T18:41:04.933Z,8.93
2018-09-05T18:43:32.935Z,7.97
2018-09-05T18:46:00.967Z,8.93
2018-09-05T18:48:29.097Z,7.73
2018-09-05T18:50:57.109Z,9.30
2018-09-05T18:53:25.164Z,7.90
2018-09-05T18:55:53.354Z,7.30
2018-09-05T18:58:21.697Z,7.83
2018-09-05T19:00:49.726Z,8.30
2018-09-05T19:03:17.751Z,7.60
2018-09-05T19:05:45.904Z,8.43
2018-09-05T19:08:13.993Z,7.80
2018-09-05T19:10:42.096Z,7.70
2018-09-05T19:13:10.129Z,7.60
2018-09-05T19:15:38.164Z,7.20
2018-09-05T19:18:06.188Z,6.77
2018-09-05T19:20:34.354Z,6.73
2018-09-05T19:23:03.011Z,8.27
2018-09-05T19:25:31.044Z,9.27
2018-09-05T19:27:59.080Z,7.67
2018-09-05T19:30:27.134Z,10.60
2018-09-05T19:32:55.180Z,8.10
2018-09-05T19:35:24.189Z,8.00
2018-09-05T19:37:52.373Z,8.57
2018-09-05T19:40:20.393Z,9.53
2018-09-05T19:42:48.417Z,9.30
2018-09-05T19:45:17.497Z,8.13
2018-09-05T19:47:45.517Z,9.83
2018-09-05T19:50:14.326Z,11.68
2018-09-05T19:52:42.280Z,9.50
2018-09-05T19:55:10.349Z,9.28
2018-09-05T19:57:38.390Z,10.70
2018-09-05T20:00:06.393Z,9.07
2018-09-05T20:02:34.608Z,8.83
2018-09-05T20:05:01.734Z,9.40
2018-09-05T20:07:30.677Z,9.43
2018-09-05T20:09:59.573Z,9.23
2018-09-05T20:12:27.585Z,8.50
2018-09-05T20:14:55.880Z,9.20
2018-09-05T20:17:23.902Z,8.70
2018-09-05T20:19:51.912Z,8.30
2018-09-05T20:22:19.929Z,8.40
2018-09-05T20:24:47.956Z,8.63
2018-09-05T20:27:16.223Z,8.73
2018-09-05T20:29:44.248Z,7.85
2018-09-05T20:32:12.263Z,6.60
2018-09-05T20:34:40.288Z,7.20
2018-09-05T20:37:08.336Z,7.10
2018-09-05T20:39:36.344Z,6.63
2018-09-05T20:42:04.971Z,6.28
2018-09-05T20:44:32.993Z,6.93
2018-09-05T20:47:01.011Z,6.37
2018-09-05T20:49:29.200Z,7.23
2018-09-05T20:51:57.216Z,6.73
2018-09-05T20:54:25.251Z,8.47
2018-09-05T20:56:53.870Z,7.90
2018-09-05T20:59:21.888Z,9.77
2018-09-05T21:01:49.904Z,7.57
2018-09-05T21:04:18.401Z,6.45
2018-09-05T21:06:46.422Z,5.77
2018-09-05T21:09:14.453Z,7.83
2018-09-05T21:11:42.608Z,8.00
2018-09-05T21:14:10.769Z,7.83
2018-09-05T21:16:38.812Z,7.03
2018-09-05T21:19:07.021Z,7.30
2018-09-05T21:21:35.207Z,7.10
2018-09-05T21:24:03.224Z,7.53
2018-09-05T21:26:31.364Z,7.90
2018-09-05T21:28:59.373Z,6.80
2018-09-05T21:31:27.428Z,5.97
2018-09-05T21:33:55.716Z,7.23
2018-09-05T21:36:23.884Z,6.43
2018-09-05T21:38:51.910Z,8.00
2018-09-05T21:41:20.088Z,5.97
2018-09-05T21:43:48.120Z,6.50
2018-09-05T21:46:16.142Z,6.93
2018-09-05T21:48:44.191Z,7.90
2018-09-05T21:51:12.267Z,7.80
2018-09-05T21:53:40.413Z,7.20
2018-09-05T21:56:08.517Z,7.23
2018-09-05T21:58:36.594Z,8.10
2018-09-05T22:01:04.856Z,7.07
2018-09-05T22:03:33.008Z,7.93
2018-09-05T22:06:01.020Z,6.43
2018-09-05T22:08:29.125Z,6.80
2018-09-05T22:11:01.340Z,8.87
2018-09-05T22:13:29.636Z,7.13
2018-09-05T22:15:57.668Z,7.30
2018-09-05T22:18:25.747Z,8.40
2018-09-05T22:20:53.840Z,7.33
2018-09-05T22:23:22.184Z,8.05
2018-09-05T22:25:50.208Z,7.23
2018-09-05T22:28:18.245Z,7.17
2018-09-05T22:30:46.268Z,7.10
2018-09-05T22:33:14.280Z,7.90
2018-09-05T22:35:42.303Z,8.33
2018-09-05T22:38:10.311Z,8.87
2018-09-05T22:40:43.888Z,9.23
2018-09-05T22:43:23.428Z,8.53
2018-09-05T22:46:02.919Z,7.83
2018-09-05T22:50:53.904Z,8.47
2018-09-05T22:53:38.635Z,7.40
2018-09-05T22:58:24.181Z,8.23
2018-09-05T23:01:18.314Z,7.93
2018-09-05T23:03:55.489Z,8.70
2018-09-05T23:08:43.357Z,7.90
2018-09-05T23:13:26.771Z,7.55
2018-09-05T23:16:06.652Z,9.40
2018-09-05T23:18:46.159Z,8.33
2018-09-05T23:21:22.340Z,9.33
2018-09-05T23:23:56.444Z,8.57
2018-09-05T23:26:24.836Z,8.20
2018-09-05T23:28:52.999Z,8.37
2018-09-05T23:31:21.240Z,9.67
2018-09-05T23:33:49.569Z,9.00
2018-09-05T23:36:17.731Z,8.50
2018-09-05T23:38:45.828Z,9.43
2018-09-05T23:41:13.964Z,9.93
2018-09-05T23:43:42.028Z,8.63
2018-09-05T23:46:10.052Z,9.35
2018-09-05T23:48:38.327Z,9.57
2018-09-05T23:51:06.724Z,9.90
2018-09-05T23:53:34.970Z,8.93
2018-09-05T23:56:03.207Z,8.17
2018-09-05T23:58:31.220Z,8.87
